Time,TemperatureF,DewpointF,PressureIn,WindDirection,WindDirectionDegrees,WindSpeedMPH,WindSpeedGustMPH,Humidity,HourlyPrecipIn,Conditions,Clouds,dailyrainin,SolarRadiationWatts/m^2,SoftwareType,DateUTC
2013-01-28 00:12:00,28.0,24.0,-100.00,ENE,63,0.0,2.0,86,0.00,,,0.16,1.000000,,2013-01-28 05:12:00,
2013-01-28 00:22:00,28.0,24.0,-100.00,ENE,63,0.0,2.0,86,0.00,,,0.16,1.000000,,2013-01-28 05:22:00,
2013-01-28 00:32:00,28.0,24.0,-100.00,ENE,63,0.0,2.0,86,0.00,,,0.16,1.000000,,2013-01-28 05:32:00,
2013-01-28 00:42:00,28.0,24.0,-100.00,ENE,63,0.0,2.0,86,0.00,,,0.16,1.000000,,2013-01-28 05:42:00,
2013-01-28 00:52:00,30.0,25.0,-100.00,NNW,346,0.0,0.0,83,0.00,,,0.16,1.000000,,2013-01-28 05:52:00,
2013-01-28 01:22:00,30.0,25.0,-100.00,NNW,346,0.0,0.0,83,0.00,,,0.16,1.000000,,2013-01-28 06:22:00,
2013-01-28 01:32:00,30.0,25.0,-100.00,NNW,346,0.0,0.0,83,0.00,,,0.16,1.000000,,2013-01-28 06:32:00,
2013-01-28 01:42:00,30.0,25.0,-100.00,NNW,346,0.0,0.0,83,0.00,,,0.16,1.000000,,2013-01-28 06:42:00,
2013-01-28 02:22:00,32.0,26.0,-100.00,NW,326,0.0,2.0,79,0.00,,,0.16,1.000000,,2013-01-28 07:22:00,
2013-01-28 02:32:00,32.0,26.0,-100.00,NW,326,0.0,2.0,79,0.00,,,0.16,1.000000,,2013-01-28 07:32:00,
2013-01-28 02:42:00,32.0,26.0,-100.00,NW,326,0.0,2.0,79,0.00,,,0.16,1.000000,,2013-01-28 07:42:00,
2013-01-28 02:51:00,32.0,26.0,-100.00,NW,326,0.0,2.0,79,0.00,,,0.16,1.000000,,2013-01-28 07:51:00,
2013-01-28 02:52:00,33.0,27.0,-100.00,WNW,286,0.0,4.0,77,0.00,,,0.16,1.000000,,2013-01-28 07:52:00,
2013-01-28 03:21:00,33.0,27.0,-100.00,WNW,286,0.0,4.0,77,0.00,,,0.16,1.000000,,2013-01-28 08:21:00,
2013-01-28 03:32:00,33.0,27.0,-100.00,WNW,286,0.0,4.0,77,0.00,,,0.16,1.000000,,2013-01-28 08:32:00,
2013-01-28 03:42:00,33.0,27.0,-100.00,WNW,286,0.0,4.0,77,0.00,,,0.16,1.000000,,2013-01-28 08:42:00,
2013-01-28 03:52:00,33.0,27.0,-100.00,NNW,335,0.0,4.0,78,0.00,,,0.16,1.000000,,2013-01-28 08:52:00,
2013-01-28 04:12:00,33.0,27.0,-100.00,NNW,335,0.0,4.0,78,0.00,,,0.16,1.000000,,2013-01-28 09:12:00,
2013-01-28 04:22:00,33.0,27.0,-100.00,NNW,335,0.0,4.0,78,0.00,,,0.16,1.000000,,2013-01-28 09:22:00,
2013-01-28 04:32:00,33.0,27.0,-100.00,NNW,335,0.0,4.0,78,0.00,,,0.16,1.000000,,2013-01-28 09:32:00,
2013-01-28 04:42:00,33.0,27.0,-100.00,NNW,335,0.0,4.0,78,0.00,,,0.16,1.000000,,2013-01-28 09:42:00,
2013-01-28 04:52:00,32.0,30.0,-100.00,WNW,297,0.0,2.0,91,0.00,,,0.16,1.000000,,2013-01-28 09:52:00,
2013-01-28 05:21:00,32.0,30.0,-100.00,WNW,297,0.0,2.0,91,0.00,,,0.16,1.000000,,2013-01-28 10:21:00,
2013-01-28 05:32:00,32.0,30.0,-100.00,WNW,297,0.0,2.0,91,0.00,,,0.16,1.000000,,2013-01-28 10:32:00,
2013-01-28 05:42:00,32.0,30.0,-100.00,WNW,297,0.0,2.0,91,0.00,,,0.16,1.000000,,2013-01-28 10:42:00,
2013-01-28 05:52:00,32.0,30.0,-100.00,WNW,300,1.0,5.0,91,0.00,,,0.16,1.000000,,2013-01-28 10:52:00,
2013-01-28 06:11:00,32.0,30.0,-100.00,WNW,300,1.0,5.0,91,0.00,,,0.16,1.000000,,2013-01-28 11:11:00,
2013-01-28 06:22:00,32.0,30.0,-100.00,WNW,300,1.0,5.0,91,0.00,,,0.16,1.000000,,2013-01-28 11:22:00,
2013-01-28 06:32:00,32.0,30.0,-100.00,WNW,300,1.0,5.0,91,0.00,,,0.16,1.000000,,2013-01-28 11:32:00,
2013-01-28 06:42:00,32.0,30.0,-100.00,WNW,300,1.0,5.0,91,0.00,,,0.16,1.000000,,2013-01-28 11:42:00,
2013-01-28 06:52:00,32.0,31.0,-100.00,SSW,211,0.0,4.0,96,0.00,,,0.16,1.000000,,2013-01-28 11:52:00,
2013-01-28 07:12:00,32.0,31.0,-100.00,SSW,211,0.0,4.0,96,0.00,,,0.16,1.000000,,2013-01-28 12:12:00,
2013-01-28 07:23:00,32.0,31.0,-100.00,SSW,211,0.0,4.0,96,0.00,,,0.16,1.000000,,2013-01-28 12:23:00,
2013-01-28 07:33:00,32.0,31.0,-100.00,SSW,211,0.0,4.0,96,0.00,,,0.16,1.000000,,2013-01-28 12:33:00,
2013-01-28 07:42:00,32.0,31.0,-100.00,SSW,211,0.0,4.0,96,0.00,,,0.16,1.000000,,2013-01-28 12:42:00,
2013-01-28 07:52:00,33.0,31.0,-100.00,SSW,211,0.0,2.0,94,0.00,,,0.16,4.000000,,2013-01-28 12:52:00,
2013-01-28 08:23:00,33.0,31.0,-100.00,SSW,211,0.0,2.0,94,0.00,,,0.16,4.000000,,2013-01-28 13:23:00,
2013-01-28 08:33:00,33.0,31.0,-100.00,SSW,211,0.0,2.0,94,0.00,,,0.16,4.000000,,2013-01-28 13:33:00,
2013-01-28 08:42:00,33.0,31.0,-100.00,SSW,211,0.0,2.0,94,0.00,,,0.16,4.000000,,2013-01-28 13:42:00,
2013-01-28 08:52:00,32.0,30.0,-100.00,NW,323,0.0,3.0,92,0.00,,,0.16,12.000000,,2013-01-28 13:52:00,
2013-01-28 09:12:00,32.0,30.0,-100.00,NW,323,0.0,3.0,92,0.00,,,0.16,12.000000,,2013-01-28 14:12:00,
2013-01-28 09:23:00,32.0,30.0,-100.00,NW,323,0.0,3.0,92,0.00,,,0.16,12.000000,,2013-01-28 14:23:00,
2013-01-28 09:33:00,32.0,30.0,-100.00,NW,323,0.0,3.0,92,0.00,,,0.16,12.000000,,2013-01-28 14:33:00,
2013-01-28 09:43:00,32.0,30.0,-100.00,NW,323,0.0,3.0,92,0.00,,,0.16,12.000000,,2013-01-28 14:43:00,
2013-01-28 09:52:00,33.0,30.0,-100.00,NW,313,1.0,5.0,90,0.00,,,0.16,43.000000,,2013-01-28 14:52:00,
2013-01-28 10:24:00,33.0,30.0,-100.00,NW,313,1.0,5.0,90,0.00,,,0.16,43.000000,,2013-01-28 15:24:00,
2013-01-28 10:33:00,33.0,30.0,-100.00,NW,313,1.0,5.0,90,0.00,,,0.16,43.000000,,2013-01-28 15:33:00,
2013-01-28 10:43:00,33.0,30.0,-100.00,NW,313,1.0,5.0,90,0.00,,,0.16,43.000000,,2013-01-28 15:43:00,
2013-01-28 10:52:00,40.0,33.0,-100.00,NNE,15,1.0,7.0,76,0.02,,,0.17,192.000000,,2013-01-28 15:52:00,
2013-01-28 11:22:00,40.0,33.0,-100.00,NNE,15,1.0,7.0,76,0.02,,,0.17,192.000000,,2013-01-28 16:22:00,
2013-01-28 11:33:00,40.0,33.0,-100.00,NNE,15,1.0,7.0,76,0.02,,,0.17,192.000000,,2013-01-28 16:33:00,
2013-01-28 11:43:00,40.0,33.0,-100.00,NNE,15,1.0,7.0,76,0.02,,,0.17,192.000000,,2013-01-28 16:43:00,
2013-01-28 11:52:00,45.0,34.0,-100.00,ENE,76,1.0,20.0,65,0.02,,,0.19,270.000000,,2013-01-28 16:52:00,
2013-01-28 12:12:00,45.0,34.0,-100.00,ENE,76,1.0,20.0,65,0.02,,,0.19,270.000000,,2013-01-28 17:12:00,
2013-01-28 12:23:00,45.0,34.0,-100.00,ENE,76,1.0,20.0,65,0.02,,,0.19,270.000000,,2013-01-28 17:23:00,
2013-01-28 12:33:00,45.0,34.0,-100.00,ENE,76,1.0,20.0,65,0.02,,,0.19,270.000000,,2013-01-28 17:33:00,
2013-01-28 12:42:00,45.0,34.0,-100.00,ENE,76,1.0,20.0,65,0.02,,,0.19,270.000000,,2013-01-28 17:42:00,
2013-01-28 12:52:00,50.0,34.0,-100.00,NE,36,2.0,7.0,54,0.01,,,0.16,519.000000,,2013-01-28 17:52:00,
2013-01-28 13:23:00,50.0,34.0,-100.00,NE,36,2.0,7.0,54,0.01,,,0.16,519.000000,,2013-01-28 18:23:00,
2013-01-28 13:33:00,50.0,34.0,-100.00,NE,36,2.0,7.0,54,0.01,,,0.16,519.000000,,2013-01-28 18:33:00,
2013-01-28 13:42:00,50.0,34.0,-100.00,NE,36,2.0,7.0,54,0.01,,,0.16,519.000000,,2013-01-28 18:42:00,
2013-01-28 13:52:00,52.0,35.0,-100.00,NE,48,2.0,9.0,53,0.00,,,0.14,395.000000,,2013-01-28 18:52:00,
2013-01-28 14:22:00,52.0,35.0,-100.00,NE,48,2.0,9.0,53,0.00,,,0.14,395.000000,,2013-01-28 19:22:00,
2013-01-28 14:33:00,52.0,35.0,-100.00,NE,48,2.0,9.0,53,0.00,,,0.14,395.000000,,2013-01-28 19:33:00,
2013-01-28 14:42:00,52.0,35.0,-100.00,NE,48,2.0,9.0,53,0.00,,,0.14,395.000000,,2013-01-28 19:42:00,
2013-01-28 14:52:00,54.0,39.0,-100.00,NE,39,1.0,10.0,56,0.00,,,0.10,219.000000,,2013-01-28 19:52:00,
2013-01-28 15:22:00,54.0,39.0,-100.00,NE,39,1.0,10.0,56,0.00,,,0.10,219.000000,,2013-01-28 20:22:00,
2013-01-28 15:33:00,54.0,39.0,-100.00,NE,39,1.0,10.0,56,0.00,,,0.10,219.000000,,2013-01-28 20:33:00,
2013-01-28 15:43:00,54.0,39.0,-100.00,NE,39,1.0,10.0,56,0.00,,,0.10,219.000000,,2013-01-28 20:43:00,
2013-01-28 15:52:00,53.0,40.0,-100.00,NNW,342,1.0,10.0,62,0.00,,,0.06,178.000000,,2013-01-28 20:52:00,
2013-01-28 16:23:00,53.0,40.0,-100.00,NNW,342,1.0,10.0,62,0.00,,,0.06,178.000000,,2013-01-28 21:23:00,
2013-01-28 16:33:00,53.0,40.0,-100.00,NNW,342,1.0,10.0,62,0.00,,,0.06,178.000000,,2013-01-28 21:33:00,
2013-01-28 16:43:00,53.0,40.0,-100.00,NNW,342,1.0,10.0,62,0.00,,,0.06,178.000000,,2013-01-28 21:43:00,
2013-01-28 16:52:00,50.0,39.0,-100.00,NNW,343,1.0,6.0,66,0.00,,,0.05,76.000000,,2013-01-28 21:52:00,
2013-01-28 17:23:00,50.0,39.0,-100.00,NNW,343,1.0,6.0,66,0.00,,,0.05,76.000000,,2013-01-28 22:23:00,
2013-01-28 17:33:00,50.0,39.0,-100.00,NNW,343,1.0,6.0,66,0.00,,,0.05,76.000000,,2013-01-28 22:33:00,
2013-01-28 17:42:00,50.0,39.0,-100.00,NNW,343,1.0,6.0,66,0.00,,,0.05,76.000000,,2013-01-28 22:42:00,
2013-01-28 17:52:00,48.0,39.0,-100.00,NNW,331,0.0,4.0,72,0.00,,,0.05,11.000000,,2013-01-28 22:52:00,
2013-01-28 18:12:00,48.0,39.0,-100.00,NNW,331,0.0,4.0,72,0.00,,,0.05,11.000000,,2013-01-28 23:12:00,
2013-01-28 18:22:00,48.0,39.0,-100.00,NNW,331,0.0,4.0,72,0.00,,,0.05,11.000000,,2013-01-28 23:22:00,
2013-01-28 18:32:00,48.0,39.0,-100.00,NNW,331,0.0,4.0,72,0.00,,,0.05,11.000000,,2013-01-28 23:32:00,
2013-01-28 18:42:00,48.0,39.0,-100.00,NNW,331,0.0,4.0,72,0.00,,,0.05,11.000000,,2013-01-28 23:42:00,
2013-01-28 18:52:00,48.0,40.0,-100.00,SSE,161,0.0,5.0,75,0.00,,,0.05,2.000000,,2013-01-28 23:52:00,
2013-01-28 19:12:00,48.0,40.0,-100.00,SSE,161,0.0,5.0,75,0.00,,,0.05,2.000000,,2013-01-29 00:12:00,
2013-01-28 19:22:00,48.0,40.0,-100.00,SSE,161,0.0,5.0,75,0.00,,,0.05,2.000000,,2013-01-29 00:22:00,
2013-01-28 19:33:00,48.0,40.0,-100.00,SSE,161,0.0,5.0,75,0.00,,,0.05,2.000000,,2013-01-29 00:33:00,
2013-01-28 19:42:00,48.0,40.0,-100.00,SSE,161,0.0,5.0,75,0.00,,,0.05,2.000000,,2013-01-29 00:42:00,
2013-01-28 19:52:00,48.0,40.0,-100.00,North,3,1.0,13.0,75,0.00,,,0.05,2.000000,,2013-01-29 00:52:00,
2013-01-28 20:12:00,48.0,40.0,-100.00,North,3,1.0,13.0,75,0.00,,,0.05,2.000000,,2013-01-29 01:12:00,
2013-01-28 20:23:00,48.0,40.0,-100.00,North,3,1.0,13.0,75,0.00,,,0.05,2.000000,,2013-01-29 01:23:00,
2013-01-28 20:32:00,48.0,40.0,-100.00,North,3,1.0,13.0,75,0.00,,,0.05,2.000000,,2013-01-29 01:32:00,
2013-01-28 20:42:00,48.0,40.0,-100.00,North,3,1.0,13.0,75,0.00,,,0.05,2.000000,,2013-01-29 01:42:00,
2013-01-28 20:52:00,49.0,41.0,-100.00,North,3,1.0,7.0,75,0.00,,,0.05,2.000000,,2013-01-29 01:52:00,
2013-01-28 21:12:00,49.0,41.0,-100.00,North,3,1.0,7.0,75,0.00,,,0.05,2.000000,,2013-01-29 02:12:00,
2013-01-28 21:22:00,49.0,41.0,-100.00,North,3,1.0,7.0,75,0.00,,,0.05,2.000000,,2013-01-29 02:22:00,
2013-01-28 21:33:00,49.0,41.0,-100.00,North,3,1.0,7.0,75,0.00,,,0.05,2.000000,,2013-01-29 02:33:00,
2013-01-28 21:42:00,49.0,41.0,-100.00,North,3,1.0,7.0,75,0.00,,,0.05,2.000000,,2013-01-29 02:42:00,
2013-01-28 21:52:00,49.0,42.0,-100.00,North,358,1.0,5.0,76,0.00,,,0.05,2.000000,,2013-01-29 02:52:00,
2013-01-28 22:22:00,49.0,42.0,-100.00,North,358,1.0,5.0,76,0.00,,,0.05,2.000000,,2013-01-29 03:22:00,
2013-01-28 22:32:00,49.0,42.0,-100.00,North,358,1.0,5.0,76,0.00,,,0.05,2.000000,,2013-01-29 03:32:00,
2013-01-28 22:42:00,49.0,42.0,-100.00,North,358,1.0,5.0,76,0.00,,,0.05,2.000000,,2013-01-29 03:42:00,
2013-01-28 22:52:00,48.0,42.0,-100.00,North,6,1.0,8.0,79,0.00,,,0.05,2.000000,,2013-01-29 03:52:00,
2013-01-28 23:12:00,48.0,42.0,-100.00,North,6,1.0,8.0,79,0.00,,,0.05,2.000000,,2013-01-29 04:12:00,
2013-01-28 23:22:00,48.0,42.0,-100.00,North,6,1.0,8.0,79,0.00,,,0.05,2.000000,,2013-01-29 04:22:00,
2013-01-28 23:32:00,48.0,42.0,-100.00,North,6,1.0,8.0,79,0.00,,,0.05,2.000000,,2013-01-29 04:32:00,
2013-01-28 23:42:00,48.0,42.0,-100.00,North,6,1.0,8.0,79,0.00,,,0.05,2.000000,,2013-01-29 04:42:00,
2013-01-28 23:52:00,50.0,46.0,-100.00,North,6,2.0,9.0,86,0.00,,,0.05,2.000000,,2013-01-29 04:52:00,